createdAt,value
2023-02-19T00:00:31.411Z,10.47
2023-02-19T00:02:58.900Z,8.30
2023-02-19T00:05:26.185Z,9.30
2023-02-19T00:07:53.523Z,9.50
2023-02-19T00:10:20.877Z,9.70
2023-02-19T00:12:48.222Z,8.83
2023-02-19T00:15:15.627Z,9.47
2023-02-19T00:17:42.995Z,9.53
2023-02-19T00:20:10.615Z,8.40
2023-02-19T00:22:37.997Z,8.80
2023-02-19T00:25:05.541Z,8.30
2023-02-19T00:27:33.026Z,8.10
2023-02-19T00:30:00.473Z,10.00
2023-02-19T00:32:28.735Z,8.20
2023-02-19T00:34:56.061Z,8.40
2023-02-19T00:37:23.459Z,8.60
2023-02-19T00:39:50.803Z,8.10
2023-02-19T00:42:18.142Z,8.70
2023-02-19T00:44:45.485Z,8.60
2023-02-19T00:47:12.832Z,7.90
2023-02-19T00:49:40.155Z,11.50
2023-02-19T00:52:07.490Z,8.40
2023-02-19T00:54:34.746Z,8.30
2023-02-19T00:57:02.076Z,8.07
2023-02-19T00:59:29.419Z,8.23
2023-02-19T01:01:56.792Z,7.57
2023-02-19T01:04:24.117Z,10.90
2023-02-19T01:06:51.422Z,7.70
2023-02-19T01:09:19.277Z,8.67
2023-02-19T01:11:46.614Z,8.10
2023-02-19T01:14:14.054Z,8.10
2023-02-19T01:16:41.326Z,7.43
2023-02-19T01:19:08.652Z,8.20
2023-02-19T01:21:35.987Z,8.00
2023-02-19T01:24:03.336Z,8.10
2023-02-19T01:26:31.921Z,7.40
2023-02-19T01:29:02.539Z,8.93
2023-02-19T01:31:30.141Z,7.80
2023-02-19T01:33:59.171Z,7.77
2023-02-19T01:36:27.202Z,7.83
2023-02-19T01:38:55.463Z,7.13
2023-02-19T01:41:24.253Z,7.23
2023-02-19T01:43:59.116Z,7.10
2023-02-19T01:46:27.457Z,7.30
2023-02-19T01:48:55.327Z,7.10
2023-02-19T01:51:22.814Z,7.13
2023-02-19T01:53:51.704Z,7.10
2023-02-19T01:56:20.290Z,7.37
2023-02-19T01:58:47.787Z,8.00
2023-02-19T02:01:15.322Z,7.70
2023-02-19T02:03:43.715Z,7.33
2023-02-19T02:06:15.325Z,7.10
2023-02-19T02:09:00.619Z,7.90
2023-02-19T02:11:28.302Z,7.17
2023-02-19T02:13:55.734Z,10.80
2023-02-19T02:16:33.415Z,7.10
2023-02-19T02:19:02.233Z,7.07
2023-02-19T02:21:49.779Z,7.40
2023-02-19T02:24:18.629Z,6.97
2023-02-19T02:26:50.519Z,6.93
2023-02-19T02:29:19.450Z,6.80
2023-02-19T02:31:48.401Z,7.17
2023-02-19T02:34:17.286Z,7.07
2023-02-19T02:36:46.220Z,6.90
2023-02-19T02:39:14.943Z,7.00
2023-02-19T02:41:46.218Z,6.77
2023-02-19T02:44:13.540Z,7.00
2023-02-19T02:46:42.533Z,7.50
2023-02-19T02:49:11.388Z,7.40
2023-02-19T02:51:46.267Z,6.90
2023-02-19T02:54:45.504Z,7.40
2023-02-19T02:57:14.759Z,7.30
2023-02-19T02:59:43.081Z,6.70
2023-02-19T03:02:20.847Z,9.53
2023-02-19T03:05:13.723Z,6.50
2023-02-19T03:07:42.623Z,6.70
2023-02-19T03:10:11.577Z,6.70
2023-02-19T03:12:58.643Z,6.40
2023-02-19T03:15:48.580Z,6.97
2023-02-19T03:18:35.207Z,6.40
2023-02-19T03:21:04.392Z,6.13
2023-02-19T03:23:50.910Z,6.50
2023-02-19T03:26:18.936Z,6.30
2023-02-19T03:29:06.002Z,6.20
2023-02-19T03:31:33.797Z,6.70
2023-02-19T03:34:02.734Z,6.37
2023-02-19T03:36:31.615Z,6.40
2023-02-19T03:39:00.493Z,6.90
2023-02-19T03:41:46.147Z,7.27
2023-02-19T03:44:15.020Z,6.93
2023-02-19T03:46:56.126Z,6.80
2023-02-19T03:49:37.180Z,7.20
2023-02-19T03:52:06.038Z,7.20
2023-02-19T03:54:34.907Z,7.50
2023-02-19T03:57:03.783Z,7.60
2023-02-19T03:59:35.286Z,7.37
2023-02-19T04:02:09.902Z,7.40
2023-02-19T04:04:38.808Z,7.30
2023-02-19T04:07:06.439Z,7.27
2023-02-19T04:09:35.307Z,7.57
2023-02-19T04:12:02.719Z,8.10
2023-02-19T04:14:31.590Z,8.27
2023-02-19T04:16:59.992Z,7.40
2023-02-19T04:19:28.084Z,7.87
2023-02-19T04:21:57.226Z,10.23
2023-02-19T04:24:28.987Z,7.40
2023-02-19T04:26:56.547Z,7.73
2023-02-19T04:29:23.880Z,7.10
2023-02-19T04:31:51.228Z,7.20
2023-02-19T04:34:18.531Z,7.20
2023-02-19T04:36:45.855Z,6.80
2023-02-19T04:39:13.201Z,7.40
2023-02-19T04:41:40.546Z,7.10
2023-02-19T04:44:07.947Z,8.53
2023-02-19T04:46:35.204Z,7.10
2023-02-19T04:49:02.788Z,7.30
2023-02-19T04:51:30.113Z,7.07
2023-02-19T04:53:57.363Z,7.40
2023-02-19T04:56:24.633Z,7.17
2023-02-19T04:58:52.068Z,7.40
2023-02-19T05:01:19.422Z,7.10
2023-02-19T05:03:46.723Z,6.73
2023-02-19T05:06:14.393Z,9.37
2023-02-19T05:08:41.694Z,7.00
2023-02-19T05:11:10.642Z,7.90
2023-02-19T05:13:38.550Z,7.47
2023-02-19T05:16:07.539Z,6.90
2023-02-19T05:18:34.889Z,7.20
2023-02-19T05:21:02.536Z,6.90
2023-02-19T05:23:29.841Z,8.30
2023-02-19T05:25:57.327Z,6.80
2023-02-19T05:28:26.268Z,7.30
2023-02-19T05:30:53.761Z,6.60
2023-02-19T05:33:22.620Z,7.20
2023-02-19T05:35:51.077Z,7.60
2023-02-19T05:38:18.721Z,7.63
2023-02-19T05:40:46.118Z,7.20
2023-02-19T05:43:14.123Z,7.43
2023-02-19T05:45:42.001Z,13.80
2023-02-19T05:48:09.426Z,7.00
2023-02-19T05:50:39.692Z,7.83
2023-02-19T05:53:06.526Z,8.40
2023-02-19T05:55:37.299Z,9.20
2023-02-19T05:58:04.720Z,8.70
2023-02-19T06:00:33.334Z,8.47
2023-02-19T06:03:00.991Z,7.20
2023-02-19T06:05:28.456Z,8.57
2023-02-19T06:07:55.781Z,7.83
2023-02-19T06:10:23.890Z,7.93
2023-02-19T06:12:52.794Z,8.60
2023-02-19T06:17:54.773Z,8.67
2023-02-19T06:20:22.113Z,8.73
2023-02-19T06:22:50.988Z,9.63
2023-02-19T06:25:19.087Z,8.20
2023-02-19T06:27:46.601Z,8.53
2023-02-19T06:30:14.105Z,9.20
2023-02-19T06:32:41.540Z,11.07
2023-02-19T06:35:08.859Z,9.70
2023-02-19T06:37:36.173Z,7.60
2023-02-19T06:40:04.032Z,10.60
2023-02-19T06:42:34.049Z,9.60
2023-02-19T06:45:01.388Z,9.10
2023-02-19T06:47:30.260Z,8.73
2023-02-19T06:49:57.600Z,9.30
2023-02-19T06:52:24.961Z,11.70
2023-02-19T06:54:52.283Z,10.77
2023-02-19T06:57:19.636Z,10.80
2023-02-19T06:59:47.367Z,9.17
2023-02-19T07:02:14.722Z,10.77
2023-02-19T07:04:42.059Z,10.43
2023-02-19T07:07:10.952Z,10.03
2023-02-19T07:09:38.290Z,9.30
2023-02-19T07:12:05.807Z,11.37
2023-02-19T07:14:33.227Z,8.73
2023-02-19T07:17:01.138Z,11.90
2023-02-19T07:19:28.500Z,11.90
2023-02-19T07:21:55.837Z,9.80
2023-02-19T07:24:23.177Z,11.60
2023-02-19T07:26:50.699Z,11.07
2023-02-19T07:29:18.013Z,12.23
2023-02-19T07:31:45.397Z,10.90
2023-02-19T07:34:12.754Z,11.10
2023-02-19T07:36:40.106Z,12.80
2023-02-19T07:39:09.732Z,10.60
2023-02-19T07:41:36.437Z,9.77
2023-02-19T07:44:03.836Z,8.83
2023-02-19T07:46:31.949Z,9.90
2023-02-19T07:49:00.264Z,10.43
2023-02-19T07:51:27.611Z,11.57
2023-02-19T07:53:54.984Z,13.20
2023-02-19T07:56:22.369Z,9.97
2023-02-19T07:58:49.727Z,12.10
2023-02-19T08:01:18.549Z,10.20
2023-02-19T08:03:48.177Z,12.00
2023-02-19T08:06:15.337Z,12.60
2023-02-19T08:08:42.655Z,10.63
2023-02-19T08:11:28.644Z,16.03
2023-02-19T08:13:55.986Z,11.63
2023-02-19T08:16:36.780Z,11.77
2023-02-19T08:18:52.738Z,10.90
2023-02-19T08:21:20.486Z,13.87
2023-02-19T08:23:50.824Z,11.50
2023-02-19T08:26:17.110Z,11.70
2023-02-19T08:28:44.536Z,11.63
2023-02-19T08:31:13.291Z,14.10
2023-02-19T08:33:41.056Z,16.30
2023-02-19T08:36:09.390Z,10.97
2023-02-19T08:38:37.563Z,14.67
2023-02-19T08:41:09.473Z,11.53
2023-02-19T08:43:37.214Z,16.93
2023-02-19T08:46:05.879Z,10.80
2023-02-19T08:48:33.725Z,12.67
2023-02-19T08:51:03.480Z,11.57
2023-02-19T08:53:31.732Z,14.87
2023-02-19T08:55:59.483Z,12.27
2023-02-19T08:58:26.818Z,14.00
2023-02-19T09:00:54.331Z,13.23
2023-02-19T09:03:21.908Z,11.33
2023-02-19T09:05:49.236Z,10.40
2023-02-19T09:08:19.405Z,13.57
2023-02-19T09:10:47.325Z,12.50
2023-02-19T09:13:14.651Z,13.60
2023-02-19T09:15:42.031Z,11.40
2023-02-19T09:18:09.345Z,13.60
2023-02-19T09:20:36.683Z,11.60
2023-02-19T09:23:04.091Z,11.83
2023-02-19T09:25:31.433Z,12.00
2023-02-19T09:27:58.879Z,12.27
2023-02-19T09:30:26.250Z,14.80
2023-02-19T09:32:53.558Z,12.27
2023-02-19T09:35:20.903Z,16.63
2023-02-19T09:37:48.240Z,15.47
2023-02-19T09:40:17.482Z,14.40
2023-02-19T09:42:44.849Z,13.33
2023-02-19T09:45:14.089Z,16.63
2023-02-19T09:47:41.466Z,14.97
2023-02-19T09:50:10.383Z,17.20
2023-02-19T09:52:39.256Z,15.33
2023-02-19T09:55:17.370Z,17.13
2023-02-19T09:57:45.502Z,11.43
2023-02-19T10:00:14.409Z,14.60
2023-02-19T10:02:41.741Z,20.60
2023-02-19T10:05:13.511Z,14.00
2023-02-19T10:07:42.339Z,13.80
2023-02-19T10:10:17.937Z,13.97
2023-02-19T10:12:50.350Z,12.13
2023-02-19T10:15:19.545Z,14.27
2023-02-19T10:17:46.913Z,13.23
2023-02-19T10:20:18.992Z,18.30
2023-02-19T10:22:46.578Z,14.10
2023-02-19T10:25:15.140Z,13.07
2023-02-19T10:27:42.945Z,13.87
2023-02-19T10:30:21.265Z,13.60
2023-02-19T10:33:05.514Z,14.23
2023-02-19T10:35:34.482Z,14.20
2023-02-19T10:38:02.982Z,12.90
2023-02-19T10:40:30.391Z,16.77
2023-02-19T10:43:00.272Z,13.00
2023-02-19T10:45:41.319Z,16.10
2023-02-19T10:48:10.179Z,13.50
2023-02-19T10:50:39.097Z,19.97
2023-02-19T10:53:06.433Z,12.73
2023-02-19T10:55:37.833Z,17.00
2023-02-19T10:58:26.436Z,18.63
2023-02-19T11:01:13.419Z,18.37
2023-02-19T11:03:41.126Z,14.90
2023-02-19T11:06:10.356Z,15.90
2023-02-19T11:08:48.345Z,16.70
2023-02-19T11:11:26.347Z,11.53
2023-02-19T11:13:54.980Z,14.10
2023-02-19T11:16:22.611Z,14.83
2023-02-19T11:18:57.315Z,16.80
2023-02-19T11:21:31.105Z,15.40
2023-02-19T11:23:58.446Z,13.87
2023-02-19T11:26:27.656Z,14.70
2023-02-19T11:28:59.722Z,12.87
2023-02-19T11:31:31.898Z,14.73
2023-02-19T11:34:01.134Z,14.10
2023-02-19T11:36:32.643Z,15.33
2023-02-19T11:39:01.551Z,13.40
2023-02-19T11:41:33.057Z,16.57
2023-02-19T11:44:04.873Z,17.60
2023-02-19T11:46:36.884Z,15.07
2023-02-19T11:49:08.799Z,16.30
2023-02-19T11:51:44.952Z,20.30
2023-02-19T11:54:30.564Z,15.30
2023-02-19T11:57:16.001Z,14.23
2023-02-19T11:59:44.873Z,16.13
2023-02-19T12:02:30.319Z,13.53
2023-02-19T12:05:02.268Z,17.30
2023-02-19T12:07:33.889Z,11.73
2023-02-19T12:10:12.405Z,15.50
2023-02-19T12:12:57.973Z,13.53
2023-02-19T12:15:26.887Z,16.37
2023-02-19T12:18:05.459Z,17.30
2023-02-19T12:20:37.730Z,16.07
2023-02-19T12:23:24.779Z,15.27
2023-02-19T12:25:59.403Z,18.07
2023-02-19T12:28:28.276Z,12.50
2023-02-19T12:30:57.171Z,17.30
2023-02-19T12:33:42.378Z,16.40
2023-02-19T12:36:27.756Z,16.20
2023-02-19T12:38:56.642Z,16.07
2023-02-19T12:41:25.536Z,19.03
2023-02-19T12:43:54.413Z,15.40
2023-02-19T12:46:29.272Z,16.83
2023-02-19T12:48:59.930Z,15.57
2023-02-19T12:51:34.468Z,16.40
2023-02-19T12:54:10.619Z,14.37
2023-02-19T12:56:42.170Z,15.17
2023-02-19T12:59:23.452Z,15.00
2023-02-19T13:01:52.699Z,17.13
2023-02-19T13:04:21.570Z,16.30
2023-02-19T13:06:50.458Z,15.60
2023-02-19T13:09:19.282Z,17.47
2023-02-19T13:11:57.943Z,18.40
2023-02-19T13:14:26.834Z,14.33
2023-02-19T13:16:55.743Z,13.77
2023-02-19T13:19:23.142Z,15.63
2023-02-19T13:22:02.578Z,12.73
2023-02-19T13:24:34.359Z,15.30
2023-02-19T13:27:07.427Z,13.20
2023-02-19T13:29:39.200Z,13.13
2023-02-19T13:32:24.520Z,13.33
2023-02-19T13:34:54.578Z,12.77
2023-02-19T13:37:22.595Z,14.57
2023-02-19T13:39:50.935Z,13.87
2023-02-19T13:42:19.999Z,12.60
2023-02-19T13:44:48.909Z,17.00
2023-02-19T13:47:34.657Z,12.60
2023-02-19T13:50:09.049Z,14.00
2023-02-19T13:52:38.352Z,13.73
2023-02-19T13:55:24.096Z,13.73
2023-02-19T13:57:51.428Z,16.00
2023-02-19T14:00:37.049Z,11.80
2023-02-19T14:03:22.640Z,10.67
2023-02-19T14:06:05.833Z,14.53
2023-02-19T14:08:52.502Z,14.23
2023-02-19T14:11:21.377Z,12.13
2023-02-19T14:13:54.345Z,12.13
2023-02-19T14:16:32.358Z,12.73
2023-02-19T14:18:59.693Z,13.37
2023-02-19T14:21:28.576Z,10.90
2023-02-19T14:23:59.896Z,11.80
2023-02-19T14:26:28.505Z,11.60
2023-02-19T14:28:56.011Z,10.10
2023-02-19T14:31:30.917Z,11.97
2023-02-19T14:34:03.565Z,11.63
2023-02-19T14:36:44.939Z,10.27
2023-02-19T14:39:20.148Z,11.97
2023-02-19T14:41:49.272Z,10.03
2023-02-19T14:44:18.472Z,9.80
2023-02-19T14:46:50.036Z,11.60
2023-02-19T14:49:18.908Z,12.50
2023-02-19T14:51:49.884Z,9.40
2023-02-19T14:54:18.770Z,11.40
2023-02-19T14:56:47.741Z,9.67
2023-02-19T14:59:22.972Z,12.83
2023-02-19T15:02:01.033Z,9.37
2023-02-19T15:04:31.219Z,10.20
2023-02-19T15:07:00.165Z,10.73
2023-02-19T15:09:29.031Z,9.83
2023-02-19T15:11:57.620Z,9.60
2023-02-19T15:14:27.468Z,10.17
2023-02-19T15:16:56.356Z,10.33
2023-02-19T15:19:23.772Z,11.60
2023-02-19T15:21:51.284Z,9.50
2023-02-19T15:24:19.499Z,8.90
2023-02-19T15:26:51.880Z,7.87
2023-02-19T15:29:20.662Z,8.90
2023-02-19T15:31:52.114Z,8.47
2023-02-19T15:34:20.799Z,8.17
2023-02-19T15:36:49.425Z,7.50
2023-02-19T15:39:27.057Z,8.90
2023-02-19T15:41:55.922Z,8.70
2023-02-19T15:44:27.536Z,9.50
2023-02-19T15:46:55.641Z,8.13
2023-02-19T15:49:24.542Z,8.90
2023-02-19T15:51:53.431Z,8.33
2023-02-19T15:54:22.372Z,8.67
2023-02-19T15:56:51.616Z,8.87
2023-02-19T15:59:20.646Z,8.27
2023-02-19T16:01:48.490Z,9.13
2023-02-19T16:04:17.357Z,9.30
2023-02-19T16:06:52.413Z,8.53
2023-02-19T16:09:23.945Z,10.30
2023-02-19T16:11:52.919Z,8.27
2023-02-19T16:14:24.618Z,9.53
2023-02-19T16:16:56.183Z,10.97
2023-02-19T16:19:27.008Z,8.00
2023-02-19T16:21:54.435Z,8.50
2023-02-19T16:24:27.082Z,10.77
2023-02-19T16:26:55.463Z,8.30
2023-02-19T16:29:24.762Z,9.17
2023-02-19T16:31:56.521Z,9.93
2023-02-19T16:34:43.113Z,10.90
2023-02-19T16:37:28.541Z,10.53
2023-02-19T16:40:11.342Z,9.00
2023-02-19T16:42:40.215Z,9.53
2023-02-19T16:45:08.529Z,9.20
2023-02-19T16:47:37.601Z,10.63
2023-02-19T16:50:06.542Z,11.37
2023-02-19T16:52:33.915Z,9.33
2023-02-19T16:55:01.664Z,9.97
2023-02-19T16:57:29.286Z,10.17
2023-02-19T16:59:56.640Z,12.27
2023-02-19T17:02:24.915Z,9.77
2023-02-19T17:04:54.156Z,11.47
2023-02-19T17:07:22.242Z,9.53
2023-02-19T17:09:49.589Z,10.90
2023-02-19T17:12:17.536Z,10.07
2023-02-19T17:14:45.153Z,8.63
2023-02-19T17:17:12.511Z,9.23
2023-02-19T17:19:40.046Z,10.70
2023-02-19T17:22:07.428Z,11.23
2023-02-19T17:24:34.868Z,11.27
2023-02-19T17:27:02.218Z,9.90
2023-02-19T17:29:31.208Z,9.57
2023-02-19T17:31:58.606Z,9.97
2023-02-19T17:34:26.096Z,10.43
2023-02-19T17:36:53.430Z,10.50
2023-02-19T17:39:22.718Z,12.37
2023-02-19T17:41:50.813Z,9.70
2023-02-19T17:44:18.176Z,11.07
2023-02-19T17:46:47.240Z,11.03
2023-02-19T17:49:14.660Z,10.20
2023-02-19T17:51:41.997Z,10.97
2023-02-19T17:54:09.322Z,11.07
2023-02-19T17:56:36.665Z,10.77
2023-02-19T17:59:04.068Z,15.27
2023-02-19T18:01:31.419Z,9.80
2023-02-19T18:03:58.879Z,10.27
2023-02-19T18:06:26.259Z,11.27
2023-02-19T18:08:54.434Z,12.90
2023-02-19T18:11:23.223Z,13.87
2023-02-19T18:13:51.339Z,17.83
2023-02-19T18:16:19.448Z,11.70
2023-02-19T18:18:46.759Z,11.73
2023-02-19T18:21:14.380Z,11.30
2023-02-19T18:23:41.848Z,13.73
2023-02-19T18:26:10.247Z,14.77
2023-02-19T18:28:37.956Z,12.83
2023-02-19T18:31:05.424Z,13.07
2023-02-19T18:33:33.467Z,11.63
2023-02-19T18:36:00.813Z,10.53
2023-02-19T18:38:28.637Z,11.77
2023-02-19T18:40:57.843Z,11.80
2023-02-19T18:43:24.977Z,13.07
2023-02-19T18:45:52.330Z,14.70
2023-02-19T18:48:19.865Z,17.27
2023-02-19T18:50:47.201Z,13.83
2023-02-19T18:53:15.626Z,12.67
2023-02-19T18:55:42.963Z,15.07
2023-02-19T18:58:10.330Z,12.63
2023-02-19T19:00:37.668Z,13.30
2023-02-19T19:03:05.043Z,11.60
2023-02-19T19:05:32.370Z,12.73
2023-02-19T19:08:01.829Z,12.70
2023-02-19T19:10:30.778Z,12.50
2023-02-19T19:12:58.383Z,14.83
2023-02-19T19:15:27.047Z,13.57
2023-02-19T19:17:54.370Z,11.80
2023-02-19T19:20:22.344Z,12.90
2023-02-19T19:22:50.478Z,12.77
2023-02-19T19:25:18.278Z,17.50
2023-02-19T19:27:45.865Z,16.13
2023-02-19T19:30:13.523Z,15.23
2023-02-19T19:32:40.854Z,17.40
2023-02-19T19:35:08.522Z,23.53
2023-02-19T19:37:35.995Z,13.70
2023-02-19T19:40:03.813Z,15.53
2023-02-19T19:42:31.163Z,16.57
2023-02-19T19:44:58.556Z,15.53
2023-02-19T19:47:25.984Z,16.80
2023-02-19T19:49:53.383Z,16.67
2023-02-19T19:52:20.648Z,13.30
2023-02-19T19:54:47.976Z,17.53
2023-02-19T19:57:16.360Z,16.47
2023-02-19T19:59:43.774Z,15.23
2023-02-19T20:02:11.302Z,14.37
2023-02-19T20:04:38.630Z,13.30
2023-02-19T20:07:06.310Z,16.17
2023-02-19T20:09:33.718Z,14.30
2023-02-19T20:12:01.054Z,14.50
2023-02-19T20:14:28.412Z,16.50
2023-02-19T20:16:56.123Z,17.33
2023-02-19T20:19:23.870Z,17.03
2023-02-19T20:21:52.452Z,16.07
2023-02-19T20:24:24.653Z,14.90
2023-02-19T20:26:53.911Z,15.87
2023-02-19T20:29:22.019Z,16.27
2023-02-19T20:31:50.422Z,17.33
2023-02-19T20:34:18.924Z,17.87
2023-02-19T20:36:47.232Z,17.30
2023-02-19T20:39:16.151Z,14.70
2023-02-19T20:41:48.206Z,16.87
2023-02-19T20:44:15.906Z,15.07
2023-02-19T20:46:44.674Z,15.60
2023-02-19T20:49:12.803Z,15.00
2023-02-19T20:51:42.393Z,16.30
2023-02-19T20:54:09.794Z,18.13
2023-02-19T20:56:37.366Z,18.43
2023-02-19T20:59:04.662Z,13.93
2023-02-19T21:01:31.944Z,17.90
2023-02-19T21:03:59.249Z,18.60
2023-02-19T21:06:26.613Z,16.20
2023-02-19T21:08:53.930Z,16.90
2023-02-19T21:11:21.226Z,18.50
2023-02-19T21:13:48.564Z,15.60
2023-02-19T21:16:16.128Z,16.90
2023-02-19T21:18:43.727Z,14.67
2023-02-19T21:21:11.064Z,19.13
2023-02-19T21:23:39.310Z,18.40
2023-02-19T21:26:06.648Z,21.00
2023-02-19T21:28:33.984Z,16.87
2023-02-19T21:31:01.353Z,17.40
2023-02-19T21:33:28.670Z,22.03
2023-02-19T21:35:57.497Z,16.87
2023-02-19T21:38:24.998Z,18.40
2023-02-19T21:40:52.341Z,18.17
2023-02-19T21:43:19.818Z,18.93
2023-02-19T21:45:47.140Z,16.33
2023-02-19T21:48:14.454Z,15.20
2023-02-19T21:50:43.377Z,18.60
2023-02-19T21:53:10.709Z,17.77
2023-02-19T21:55:38.641Z,15.97
2023-02-19T21:58:07.804Z,20.47
2023-02-19T22:00:35.185Z,18.93
2023-02-19T22:03:02.598Z,20.83
2023-02-19T22:05:29.974Z,19.00
2023-02-19T22:07:58.435Z,18.43
2023-02-19T22:10:25.720Z,20.47
2023-02-19T22:12:53.074Z,17.50
2023-02-19T22:15:20.443Z,17.30
2023-02-19T22:17:47.800Z,19.47
2023-02-19T22:20:17.028Z,18.50
2023-02-19T22:22:44.402Z,20.90
2023-02-19T22:25:11.850Z,18.43
2023-02-19T22:27:40.637Z,17.33
2023-02-19T22:30:08.291Z,19.23
2023-02-19T22:32:35.717Z,16.93
2023-02-19T22:35:03.088Z,17.63
2023-02-19T22:37:30.421Z,21.20
2023-02-19T22:39:57.796Z,17.27
2023-02-19T22:42:25.685Z,18.10
2023-02-19T22:44:53.497Z,16.67
2023-02-19T22:47:20.904Z,20.80
2023-02-19T22:49:48.264Z,15.30
2023-02-19T22:52:15.866Z,18.57
2023-02-19T22:54:43.284Z,19.17
2023-02-19T22:57:10.674Z,18.53
2023-02-19T22:59:38.041Z,18.67
2023-02-19T23:02:05.373Z,16.43
2023-02-19T23:04:32.882Z,20.30
2023-02-19T23:07:00.203Z,19.63
2023-02-19T23:09:29.153Z,18.17
2023-02-19T23:12:03.635Z,19.20
2023-02-19T23:14:31.010Z,19.53
2023-02-19T23:16:58.476Z,18.53
2023-02-19T23:19:26.383Z,20.07
2023-02-19T23:21:53.833Z,18.53
2023-02-19T23:24:21.181Z,19.00
2023-02-19T23:26:49.700Z,20.47
2023-02-19T23:29:21.584Z,19.67
2023-02-19T23:31:48.981Z,22.80
2023-02-19T23:34:17.080Z,20.10
2023-02-19T23:36:45.572Z,21.17
2023-02-19T23:39:14.436Z,20.23
2023-02-19T23:41:43.324Z,20.97
2023-02-19T23:44:10.650Z,22.97
2023-02-19T23:46:38.005Z,20.27
2023-02-19T23:49:05.501Z,20.90
2023-02-19T23:51:32.857Z,22.93
2023-02-19T23:54:00.202Z,23.03
2023-02-19T23:56:28.249Z,24.17
2023-02-19T23:58:55.566Z,21.97
